Decoded Metar for KELY (ELY in NV, USA) (IATA:ELY) | Meteo·Mobile Aviation Weather
aviador You're here:

KELY Decoded Metar

ELY in NV, USA
Report Time2018-10-23 10:53:00
UTC Time2018-10-23 11:19:44
Flight Rules vfr VFR
Wind150° at 05 kt
W.Decomp.*RWY 12: 4.8 kt HW 1.4 kt RCW
RWY 18: 3.6 kt HW 3.5 kt LCW
W.Rank150° ranks 7
Current wind is below 150° avg. (9.9)
Visibility9999 m
Phenomena:N/A
Clouds:N/A
Expected CloudBase > 400 ft AGL from Temp-Dew spread
CeilingNone
Temp-1°C (ISA -4)
Dew Point-2°C (93% RH)
AAT-5.1°C
QNH1020 hPa
Density Alt5,673 ft
Elevation6,253 ft
Report Wrong Elevation
Raw Report
KELY 231053Z AUTO 15005KT 10SM CLR M01/M02 A3013 RMK AO2 SLP170
T10061017=

Extra information for KELY:More info

Metar Taf Metar & Taf Last 4 Metars F.Rules Stats Wind Profile Meteogram Temp Stats Airport Information Weather charts Add Link Nearby VenuesMetar ALERT Operation Metar Decoded Social comments

AIRNAV info for KELY